Time;durP1;ratioP1;P1;durP2;ratioP2;P2;SDS_P1;SDS_P2;PMS_P1;PMS_P2;Temp;Humidity;BMP_temperature;BMP_pressure;BME280_temperature;BME280_humidity;BME280_pressure;Samples;Min_cycle;Max_cycle;Signal;HPM_P1;HPM_P2
2023/08/11 00:01:35;;;;;;;14.23;8.70;;;;;;;-146.27;83.71;81544.59;5017798;28;20366;-72
2023/08/11 00:04:00;;;;;;;16.48;9.10;;;;;;;-146.27;84.94;81538.56;5018323;28;20380;-75
2023/08/11 00:06:25;;;;;;;11.27;8.98;;;;;;;-146.27;84.08;81556.66;5014829;28;20053;-74
2023/08/11 00:08:55;;;;;;;13.38;9.27;;;;;;;-146.27;84.07;81518.50;5016295;28;20111;-75
2023/08/11 00:11:20;;;;;;;13.68;8.13;;;;;;;-146.27;84.18;81530.53;5016546;28;20505;-75
2023/08/11 00:13:45;;;;;;;17.10;9.55;;;;;;;-146.27;84.02;81480.31;5016194;28;20231;-75
2023/08/11 00:16:11;;;;;;;14.88;8.75;;;;;;;-146.27;83.38;81528.53;5019169;28;20044;-75
2023/08/11 00:18:37;;;;;;;11.95;9.77;;;;;;;-146.27;82.93;81516.47;5020353;28;20064;-75
2023/08/11 00:21:03;;;;;;;14.48;9.35;;;;;;;-146.27;83.70;81536.56;5020266;28;20048;-75
2023/08/11 00:23:28;;;;;;;11.90;9.43;;;;;;;-146.27;82.80;81512.47;5022482;28;20033;-75
2023/08/11 00:25:54;;;;;;;16.08;9.98;;;;;;;-146.27;82.99;81506.44;5016761;28;20464;-75
2023/08/11 00:28:19;;;;;;;11.40;8.82;;;;;;;-146.27;82.77;81552.63;5018961;28;20045;-75
2023/08/11 00:30:44;;;;;;;14.18;8.48;;;;;;;-146.27;82.56;81462.25;5017826;28;20116;-75
2023/08/11 00:33:10;;;;;;;15.68;9.70;;;;;;;-146.27;82.28;81530.53;5016841;28;20053;-75
2023/08/11 00:35:35;;;;;;;21.33;9.70;;;;;;;-146.27;82.60;81542.59;5014613;28;20494;-75
2023/08/11 00:38:01;;;;;;;17.23;9.40;;;;;;;-146.27;83.23;81564.69;5013329;28;20303;-76
2023/08/11 00:40:26;;;;;;;11.63;8.35;;;;;;;-146.27;82.46;81552.63;5013768;28;20022;-75
2023/08/11 00:42:52;;;;;;;11.52;8.35;;;;;;;-146.27;83.21;81604.84;5017432;28;21079;-76
2023/08/11 00:45:18;;;;;;;11.73;8.52;;;;;;;-146.27;82.79;81552.63;5013961;28;20029;-76
2023/08/11 00:47:45;;;;;;;11.60;9.13;;;;;;;-146.27;82.50;81532.53;5013691;28;20476;-76
2023/08/11 00:50:15;;;;;;;13.20;9.60;;;;;;;-146.27;82.81;81548.59;5015711;28;20580;-75
2023/08/11 00:52:43;;;;;;;12.43;9.18;;;;;;;-146.27;82.60;81550.63;5015947;28;20088;-75
2023/08/11 00:55:10;;;;;;;12.68;8.82;;;;;;;-146.27;82.23;81534.56;5008495;28;20095;-75
2023/08/11 00:57:36;;;;;;;11.82;8.07;;;;;;;-146.27;82.32;81560.66;5015071;28;20029;-75
2023/08/11 01:00:13;;;;;;;14.18;8.75;;;;;;;-146.27;82.25;81548.59;5017806;28;20048;-75
2023/08/11 01:02:43;;;;;;;12.50;9.05;;;;;;;-146.27;81.96;81572.72;5021852;28;20032;-75
2023/08/11 01:05:14;;;;;;;13.57;8.27;;;;;;;-146.27;82.44;81570.69;5018926;28;20057;-75
2023/08/11 01:07:51;;;;;;;13.20;9.50;;;;;;;-146.27;82.89;81530.53;5018791;28;20068;-75
2023/08/11 01:10:42;;;;;;;12.45;9.32;;;;;;;-146.27;83.23;81560.66;5016014;28;20064;-75
2023/08/11 01:13:19;;;;;;;11.23;8.82;;;;;;;-146.27;82.88;81584.75;5018600;28;20030;-75
2023/08/11 01:16:04;;;;;;;11.07;8.75;;;;;;;-146.27;83.02;81568.69;5021439;28;20473;-75
2023/08/11 01:18:30;;;;;;;12.10;8.52;;;;;;;-146.27;82.75;81592.78;5021220;28;20037;-75
2023/08/11 01:21:05;;;;;;;14.93;9.23;;;;;;;-146.27;83.33;81641.00;5018418;28;20487;-75
2023/08/11 01:23:31;;;;;;;11.70;9.70;;;;;;;-146.27;83.91;81594.81;5029221;28;20175;-75
2023/08/11 01:25:57;;;;;;;13.75;8.88;;;;;;;-146.27;83.74;81645.00;5016123;28;20638;-75
2023/08/11 01:28:22;;;;;;;14.68;9.13;;;;;;;-146.27;83.55;81636.97;5019968;28;20451;-75
2023/08/11 01:30:51;;;;;;;12.75;9.93;;;;;;;-146.27;83.59;81647.03;5020352;28;20029;-75
2023/08/11 01:33:16;;;;;;;14.35;11.02;;;;;;;-146.27;83.92;81632.97;5018750;28;20028;-75
2023/08/11 01:35:41;;;;;;;11.65;9.00;;;;;;;-146.27;83.93;81636.97;5018843;28;20029;-75
2023/08/11 01:38:08;;;;;;;11.63;9.73;;;;;;;-146.27;83.64;81632.97;5018701;28;20097;-75
2023/08/11 01:40:33;;;;;;;13.55;9.68;;;;;;;-146.27;83.93;81661.09;5020077;28;20116;-75
2023/08/11 01:43:02;;;;;;;11.95;9.40;;;;;;;-146.27;84.46;81667.09;5020862;28;20045;-74
2023/08/11 01:45:28;;;;;;;12.77;9.00;;;;;;;-146.27;84.02;81665.09;5019988;28;20516;-74
2023/08/11 01:47:54;;;;;;;12.45;8.98;;;;;;;-146.27;84.29;81677.16;5015784;28;20105;-74
2023/08/11 01:50:21;;;;;;;16.15;10.15;;;;;;;-146.27;84.69;81657.06;5015199;28;20037;-75
2023/08/11 01:52:48;;;;;;;17.08;9.63;;;;;;;-146.27;84.97;81739.41;5020958;28;20485;-75
2023/08/11 01:55:15;;;;;;;13.50;9.27;;;;;;;-146.27;84.67;81701.25;5019762;28;20104;-76
2023/08/11 01:57:41;;;;;;;12.95;9.45;;;;;;;-146.27;85.64;81681.16;5020873;28;20037;-75
2023/08/11 02:00:10;;;;;;;10.95;9.07;;;;;;;-146.27;84.80;81709.28;5025953;28;20045;-75
2023/08/11 02:02:37;;;;;;;10.60;8.75;;;;;;;-146.27;86.02;81747.44;5023264;28;20096;-75
2023/08/11 02:05:06;;;;;;;11.00;8.45;;;;;;;-146.27;85.86;81747.44;5017535;28;20111;-75
2023/08/11 02:07:31;;;;;;;13.80;8.93;;;;;;;-146.27;85.51;81745.44;5034967;28;20056;-75
2023/08/11 02:09:57;;;;;;;18.42;9.80;;;;;;;-146.27;86.47;81793.66;5015934;28;20067;-75
2023/08/11 02:12:22;;;;;;;11.88;9.30;;;;;;;-146.27;87.56;81811.72;5018263;28;20210;-75
2023/08/11 02:14:48;;;;;;;12.80;9.57;;;;;;;-146.27;87.08;81805.69;5021105;28;20030;-75
2023/08/11 02:17:13;;;;;;;14.45;8.63;;;;;;;-146.27;88.54;81821.75;5016413;28;20496;-74
2023/08/11 02:19:39;;;;;;;13.32;9.93;;;;;;;-146.27;89.21;81825.78;5018996;28;20025;-75
2023/08/11 02:22:04;;;;;;;18.17;9.63;;;;;;;-146.27;88.63;81837.81;5019264;28;20119;-75
2023/08/11 02:24:29;;;;;;;11.65;8.98;;;;;;;-146.27;88.46;81841.84;5015764;28;20038;-73
2023/08/11 02:26:56;;;;;;;16.52;9.50;;;;;;;-146.27;88.17;81817.75;5018262;28;20029;-73
2023/08/11 02:29:22;;;;;;;14.75;10.18;;;;;;;-146.27;88.51;81809.72;5022661;28;20111;-73
2023/08/11 02:31:47;;;;;;;13.20;10.10;;;;;;;-146.27;87.97;81845.88;5017044;28;20497;-74
2023/08/11 02:34:13;;;;;;;12.13;9.38;;;;;;;-146.27;88.80;81827.78;5021968;28;20439;-74
2023/08/11 02:36:38;;;;;;;10.45;9.27;;;;;;;-146.27;88.42;81833.81;5020581;28;20039;-74
2023/08/11 02:39:07;;;;;;;13.63;9.95;;;;;;;-146.27;88.00;81805.69;5014430;28;20045;-73
2023/08/11 02:41:33;;;;;;;12.23;9.10;;;;;;;-146.27;87.97;81857.91;5018322;28;20072;-74
2023/08/11 02:43:58;;;;;;;14.75;9.25;;;;;;;-146.27;87.98;81837.81;5014803;28;20499;-73
2023/08/11 02:46:24;;;;;;;11.70;9.35;;;;;;;-146.27;88.67;81769.53;5012822;28;20067;-74
2023/08/11 02:48:50;;;;;;;11.15;8.68;;;;;;;-146.27;87.59;81795.66;5019447;28;20045;-74
2023/08/11 02:51:15;;;;;;;12.05;9.48;;;;;;;-146.27;87.34;81847.88;5017224;28;21254;-73
2023/08/11 02:53:40;;;;;;;13.80;9.80;;;;;;;-146.27;87.67;81815.72;5013209;28;20435;-73
2023/08/11 02:56:09;;;;;;;11.40;8.90;;;;;;;-146.27;87.51;81819.75;5018365;28;20037;-74
2023/08/11 02:58:35;;;;;;;14.60;9.93;;;;;;;-146.27;87.13;81813.72;5020337;28;20073;-74
2023/08/11 03:01:02;;;;;;;12.52;8.52;;;;;;;-146.27;87.70;81809.72;5010557;28;20041;-73
2023/08/11 03:03:28;;;;;;;13.02;9.05;;;;;;;-146.27;88.29;81837.81;5018353;28;20061;-73
2023/08/11 03:05:55;;;;;;;12.50;9.88;;;;;;;-146.27;88.10;81843.84;5018250;28;20128;-73
2023/08/11 03:08:20;;;;;;;15.63;9.95;;;;;;;-146.27;88.45;81833.81;5014062;28;20487;-73
2023/08/11 03:10:46;;;;;;;14.20;8.95;;;;;;;-146.27;88.45;81849.88;5030202;28;20021;-74
2023/08/11 03:13:11;;;;;;;10.52;8.98;;;;;;;-146.27;88.05;81878.00;5019179;28;20029;-73
2023/08/11 03:15:37;;;;;;;13.52;9.70;;;;;;;-146.27;88.54;81861.94;5014735;28;20030;-74
2023/08/11 03:18:02;;;;;;;13.88;8.90;;;;;;;-146.27;88.43;81865.94;5019727;28;20338;-75
2023/08/11 03:20:28;;;;;;;10.80;8.95;;;;;;;-146.27;88.07;81886.03;5015508;28;20029;-73
2023/08/11 03:22:53;;;;;;;14.48;9.40;;;;;;;-146.27;88.88;81799.66;5015338;28;20108;-73
2023/08/11 03:25:19;;;;;;;15.95;9.90;;;;;;;-146.27;88.94;81867.97;5016711;28;22081;-73
2023/08/11 03:27:44;;;;;;;12.93;9.75;;;;;;;-146.27;88.59;81867.97;5019863;28;20025;-73
2023/08/11 03:30:11;;;;;;;11.77;9.48;;;;;;;-146.27;88.92;81829.78;5016247;28;20029;-74
2023/08/11 03:32:38;;;;;;;13.68;9.38;;;;;;;-146.27;88.11;81880.00;5017892;28;20511;-73
2023/08/11 03:35:07;;;;;;;13.68;9.60;;;;;;;-146.27;88.30;81902.09;5017685;28;20029;-75
2023/08/11 03:37:34;;;;;;;13.65;9.60;;;;;;;-146.27;89.89;81878.00;5017065;28;20083;-72
2023/08/11 03:39:59;;;;;;;12.52;9.00;;;;;;;-146.27;89.94;81934.25;5017444;28;20036;-74
2023/08/11 03:42:25;;;;;;;16.90;8.90;;;;;;;-146.27;89.61;81914.16;5013557;28;20385;-73
2023/08/11 03:44:51;;;;;;;10.63;9.23;;;;;;;-146.27;89.71;81902.09;5018323;28;20033;-74
2023/08/11 03:47:17;;;;;;;14.45;9.75;;;;;;;-146.27;89.56;81948.31;5017697;28;20030;-74
2023/08/11 03:49:43;;;;;;;12.20;10.07;;;;;;;-146.27;89.50;81914.16;5019060;28;20076;-73
2023/08/11 03:52:08;;;;;;;11.20;9.27;;;;;;;-146.27;89.03;81922.19;5023793;28;20038;-74
2023/08/11 03:54:33;;;;;;;11.85;9.00;;;;;;;-146.27;89.29;81902.09;5022290;28;20112;-73
2023/08/11 03:56:59;;;;;;;14.68;9.30;;;;;;;-146.27;89.35;81912.16;5025939;28;20025;-73
2023/08/11 03:59:24;;;;;;;12.88;10.02;;;;;;;-146.27;89.26;81906.13;5030995;28;20053;-74
2023/08/11 04:01:49;;;;;;;9.68;8.68;;;;;;;-146.27;89.64;81922.19;5024277;28;20081;-73
2023/08/11 04:04:15;;;;;;;10.93;8.95;;;;;;;-146.27;89.53;81938.25;5030425;28;20088;-73
2023/08/11 04:06:41;;;;;;;12.18;9.68;;;;;;;-146.27;89.51;81892.06;5030561;28;20080;-73
2023/08/11 04:09:06;;;;;;;10.50;9.40;;;;;;;-146.27;89.11;81886.03;5027495;28;20049;-73
2023/08/11 04:11:32;;;;;;;13.20;9.43;;;;;;;-146.27;89.23;81942.28;5024227;28;20532;-74
2023/08/11 04:13:58;;;;;;;11.60;8.68;;;;;;;-146.27;89.09;81934.25;5025574;28;20064;-73
2023/08/11 04:16:24;;;;;;;20.38;9.15;;;;;;;-146.27;89.56;81922.19;5024858;28;20567;-73
2023/08/11 04:18:50;;;;;;;16.77;8.93;;;;;;;-146.27;89.52;81930.22;5024947;28;20025;-73
2023/08/11 04:21:15;;;;;;;12.02;9.75;;;;;;;-146.27;89.26;81952.31;5023334;28;20029;-74
2023/08/11 04:23:40;;;;;;;11.32;9.00;;;;;;;-146.27;89.25;81938.25;5025420;28;20552;-73
2023/08/11 04:26:06;;;;;;;12.65;8.82;;;;;;;-146.27;89.34;81974.41;5032087;28;20502;-74
2023/08/11 04:28:32;;;;;;;10.35;8.52;;;;;;;-146.27;89.36;81902.09;5023308;28;20025;-75
2023/08/11 04:30:57;;;;;;;11.45;8.65;;;;;;;-146.27;88.94;81958.34;5023817;28;20400;-74
2023/08/11 04:33:25;;;;;;;14.13;9.35;;;;;;;-146.27;89.34;81952.31;5021433;28;20045;-74
2023/08/11 04:35:51;;;;;;;12.02;8.80;;;;;;;-146.27;89.09;81954.31;5023527;28;20029;-74
2023/08/11 04:38:17;;;;;;;14.05;8.98;;;;;;;-146.27;89.44;81938.25;5025389;28;20030;-72
2023/08/11 04:40:43;;;;;;;11.38;9.00;;;;;;;-146.27;89.67;81942.28;5030921;28;20099;-74
2023/08/11 04:43:08;;;;;;;11.52;9.18;;;;;;;-146.27;89.87;81978.44;5029193;28;20041;-74
2023/08/11 04:45:34;;;;;;;12.02;8.85;;;;;;;-146.27;90.46;82034.66;5033794;28;20448;-75
2023/08/11 04:47:59;;;;;;;13.95;9.35;;;;;;;-146.27;89.83;81950.31;5031653;28;20442;-75
2023/08/11 04:50:25;;;;;;;11.10;9.18;;;;;;;-146.27;89.65;81936.25;5030750;28;20487;-75
2023/08/11 04:52:51;;;;;;;13.32;9.60;;;;;;;-146.27;89.61;81956.34;5031586;28;20567;-75
2023/08/11 04:55:16;;;;;;;10.40;9.10;;;;;;;-146.27;89.67;81960.34;5027684;28;20026;-75
2023/08/11 04:57:42;;;;;;;15.90;9.10;;;;;;;-146.27;89.52;81962.34;5019125;28;20033;-75
2023/08/11 05:00:13;;;;;;;16.48;9.93;;;;;;;-146.27;89.42;81930.22;5020275;28;20621;-75
2023/08/11 05:02:41;;;;;;;12.02;8.65;;;;;;;-146.27;90.25;81932.22;5024187;28;20025;-75
2023/08/11 05:05:08;;;;;;;11.95;9.75;;;;;;;-146.27;89.90;81871.97;5032710;28;20046;-75
2023/08/11 05:07:34;;;;;;;10.07;8.38;;;;;;;-146.27;89.18;81948.31;5030562;28;20505;-75
2023/08/11 05:09:59;;;;;;;11.02;8.68;;;;;;;-146.27;89.19;81906.13;5031009;28;20037;-75
2023/08/11 05:12:24;;;;;;;14.75;8.65;;;;;;;-146.27;89.48;81926.22;5028956;28;20029;-75
2023/08/11 05:14:50;;;;;;;17.05;9.32;;;;;;;-146.27;89.00;81926.22;5024519;28;20381;-75
2023/08/11 05:17:15;;;;;;;10.98;8.40;;;;;;;-146.27;88.97;81924.19;5028221;28;20091;-75
2023/08/11 05:19:41;;;;;;;12.57;8.35;;;;;;;-146.27;88.73;81871.97;5027706;28;20377;-75
2023/08/11 05:22:07;;;;;;;16.92;9.10;;;;;;;-146.27;88.48;81896.06;5028015;28;20036;-75
2023/08/11 05:24:32;;;;;;;14.20;9.25;;;;;;;-146.27;88.35;81914.16;5024359;28;20034;-75
2023/08/11 05:26:58;;;;;;;12.40;8.57;;;;;;;-146.27;88.07;81857.91;5024478;28;20108;-75
2023/08/11 05:29:23;;;;;;;11.93;9.35;;;;;;;-146.27;88.07;81878.00;5031105;28;20080;-75
2023/08/11 05:31:49;;;;;;;13.38;9.15;;;;;;;-146.27;87.80;81849.88;5031551;28;20036;-75
2023/08/11 05:34:14;;;;;;;9.43;7.55;;;;;;;-146.27;87.57;81869.97;5027950;28;20033;-75
2023/08/11 05:36:39;;;;;;;12.60;8.88;;;;;;;-146.27;87.84;81809.72;5030803;28;20032;-75
2023/08/11 05:39:06;;;;;;;11.43;8.73;;;;;;;-146.27;87.66;81890.06;5025881;28;20029;-75
2023/08/11 05:41:33;;;;;;;16.80;9.52;;;;;;;-146.27;87.38;81811.72;5028275;28;20025;-75
2023/08/11 05:43:59;;;;;;;14.35;9.02;;;;;;;-146.27;87.17;81821.75;5027937;28;20030;-75
2023/08/11 05:46:24;;;;;;;14.88;8.00;;;;;;;-146.27;87.06;81789.63;5032051;28;20160;-74
2023/08/11 05:48:51;;;;;;;11.85;8.32;;;;;;;-146.27;86.99;81777.56;5031608;28;20036;-74
2023/08/11 05:51:16;;;;;;;13.85;7.53;;;;;;;-146.27;86.89;81735.41;5030459;28;20069;-75
2023/08/11 05:53:42;;;;;;;12.73;8.45;;;;;;;-146.27;86.87;81759.50;5028003;28;20032;-75
2023/08/11 05:56:07;;;;;;;12.77;8.45;;;;;;;-146.27;86.68;81719.31;5026194;28;20071;-73
2023/08/11 05:58:33;;;;;;;10.55;7.60;;;;;;;-146.27;86.48;81709.28;5044008;28;20057;-73
2023/08/11 06:00:58;;;;;;;12.52;8.70;;;;;;;-146.27;86.24;81673.13;5028801;28;20025;-72
2023/08/11 06:03:29;;;;;;;8.85;6.65;;;;;;;-146.27;86.25;81677.16;5029932;28;20029;-72
2023/08/11 06:06:01;;;;;;;13.32;8.20;;;;;;;-146.27;85.93;81632.97;5028330;28;20119;-75
2023/08/11 06:08:27;;;;;;;14.02;8.27;;;;;;;-146.27;85.73;81634.97;5025112;28;20083;-73
2023/08/11 06:10:54;;;;;;;12.48;7.43;;;;;;;-146.27;85.53;81630.97;5029716;28;20045;-74
2023/08/11 06:13:20;;;;;;;10.18;6.53;;;;;;;-146.27;85.52;81568.69;5028696;28;20465;-73
2023/08/11 06:15:46;;;;;;;13.15;7.70;;;;;;;-146.27;85.04;81616.91;5030874;28;20059;-74
2023/08/11 06:18:14;;;;;;;12.25;7.38;;;;;;;-146.27;84.77;81560.66;5029187;28;20232;-73
2023/08/11 06:20:40;;;;;;;11.48;6.80;;;;;;;-146.27;84.51;81560.66;5029161;28;20052;-73
2023/08/11 06:23:05;;;;;;;17.67;7.72;;;;;;;-146.27;84.18;81530.53;5026665;28;20037;-72
2023/08/11 06:25:30;;;;;;;12.07;7.22;;;;;;;-146.27;83.75;81472.28;5022469;28;20056;-74
2023/08/11 06:27:56;;;;;;;17.08;6.60;;;;;;;-146.27;83.40;81480.31;5014802;28;20032;-73
2023/08/11 06:30:21;;;;;;;12.70;6.93;;;;;;;-146.27;82.87;81456.22;5015653;28;20032;-72
2023/08/11 06:32:47;;;;;;;13.65;6.82;;;;;;;-146.27;82.62;81422.09;5020226;28;20501;-74
2023/08/11 06:35:12;;;;;;;13.13;7.60;;;;;;;-146.27;82.50;81400.00;5022899;28;20145;-73
2023/08/11 06:37:38;;;;;;;13.13;6.03;;;;;;;-146.27;82.08;81371.88;5026579;28;20110;-73
2023/08/11 06:40:04;;;;;;;9.32;5.70;;;;;;;-146.27;81.55;81331.72;5023909;28;20087;-74
2023/08/11 06:42:30;;;;;;;11.70;6.82;;;;;;;-146.27;81.42;81307.63;5017554;28;20091;-74
2023/08/11 06:44:55;;;;;;;24.15;5.90;;;;;;;-146.27;80.83;81283.50;5025902;28;20516;-74
2023/08/11 06:47:21;;;;;;;8.80;5.20;;;;;;;-146.27;80.71;81275.47;5013393;28;20033;-74
2023/08/11 06:49:46;;;;;;;12.50;5.80;;;;;;;-146.27;80.13;81255.41;5025029;28;20497;-70
2023/08/11 06:52:12;;;;;;;11.98;5.70;;;;;;;-146.27;79.19;81207.19;5023596;28;20025;-74
2023/08/11 06:54:39;;;;;;;14.15;5.63;;;;;;;-146.27;78.84;81195.16;5026865;28;20087;-72
2023/08/11 06:57:04;;;;;;;11.00;6.65;;;;;;;-146.27;79.16;81195.16;5026666;28;20026;-74
2023/08/11 06:59:30;;;;;;;11.95;5.85;;;;;;;-146.27;78.48;81183.09;5022763;28;20025;-73
2023/08/11 07:01:56;;;;;;;12.70;6.05;;;;;;;-146.27;76.88;81181.09;5028720;28;20097;-71
2023/08/11 07:04:21;;;;;;;11.82;5.30;;;;;;;-146.27;76.97;81134.91;5026310;28;20025;-72
2023/08/11 07:06:47;;;;;;;8.48;5.05;;;;;;;-146.27;76.78;81102.78;5021480;28;20038;-71
2023/08/11 07:09:12;;;;;;;13.60;5.60;;;;;;;-146.27;76.78;81098.75;5019126;28;20033;-72
2023/08/11 07:11:38;;;;;;;10.13;5.55;;;;;;;-146.27;76.31;81026.47;5028111;28;20024;-72
2023/08/11 07:14:04;;;;;;;8.48;4.57;;;;;;;-146.27;76.55;80950.16;5022643;28;20033;-73
2023/08/11 07:16:29;;;;;;;14.25;4.57;;;;;;;-146.27;76.77;80950.16;5021608;28;20072;-73
2023/08/11 07:18:55;;;;;;;11.48;5.10;;;;;;;-146.27;75.97;80974.25;5023613;28;20460;-72
2023/08/11 07:21:20;;;;;;;14.30;4.88;;;;;;;-146.27;74.81;80905.97;5026871;28;20095;-72
2023/08/11 07:23:46;;;;;;;8.27;4.20;;;;;;;-146.27;75.46;80899.97;5016400;28;20026;-71
2023/08/11 07:26:11;;;;;;;14.23;4.45;;;;;;;-146.27;74.87;80899.97;5021086;28;20462;-72
2023/08/11 07:28:36;;;;;;;7.82;4.82;;;;;;;-146.27;74.36;80841.72;5016194;28;20030;-73
2023/08/11 07:31:02;;;;;;;9.23;4.25;;;;;;;-146.27;73.94;80807.59;5020202;28;20026;-72
2023/08/11 07:33:27;;;;;;;6.72;4.00;;;;;;;-146.27;73.23;80737.31;5019629;28;20484;-73
2023/08/11 07:35:52;;;;;;;9.27;4.03;;;;;;;-146.27;73.68;80751.38;5012408;28;20553;-73
2023/08/11 07:38:20;;;;;;;9.90;3.97;;;;;;;-146.27;73.54;80721.25;5020758;28;20037;-73
2023/08/11 07:40:46;;;;;;;7.72;4.13;;;;;;;-146.27;73.07;80687.09;5013995;28;20025;-73
2023/08/11 07:43:11;;;;;;;6.15;3.35;;;;;;;-146.27;72.49;80663.00;5030036;28;20109;-72
2023/08/11 07:45:37;;;;;;;10.32;4.07;;;;;;;-146.27;71.88;80608.78;5021236;28;20500;-72
2023/08/11 07:48:03;;;;;;;11.57;3.35;;;;;;;-146.27;70.41;80616.84;5025003;28;20118;-72
2023/08/11 07:50:28;;;;;;;8.93;4.22;;;;;;;-146.27;70.07;80534.50;5028169;28;20593;-72
2023/08/11 07:52:54;;;;;;;6.68;3.70;;;;;;;-146.27;69.70;80444.16;5028901;28;20052;-74
2023/08/11 07:55:20;;;;;;;7.28;3.55;;;;;;;-146.27;69.76;80399.97;5029257;28;20036;-74
2023/08/11 07:57:45;;;;;;;8.25;3.95;;;;;;;-146.27;68.93;80397.97;5028618;28;20041;-71
2023/08/11 08:00:16;;;;;;;8.82;3.70;;;;;;;-146.27;68.83;80315.66;5027430;28;20029;-73
2023/08/11 08:02:43;;;;;;;6.47;3.90;;;;;;;-146.27;69.21;80283.53;5012746;28;20040;-73
2023/08/11 08:05:09;;;;;;;15.93;4.60;;;;;;;-146.27;68.86;80279.50;5022890;28;20652;-70
2023/08/11 08:07:34;;;;;;;10.88;4.38;;;;;;;-146.27;68.85;80249.41;5018005;28;20487;-75
2023/08/11 08:10:00;;;;;;;7.75;4.28;;;;;;;-146.27;68.63;80235.34;5022743;28;20022;-77
2023/08/11 08:12:25;;;;;;;9.90;4.70;;;;;;;-146.27;69.41;80253.41;5016810;28;20033;-75
2023/08/11 08:14:50;;;;;;;9.50;3.88;;;;;;;-146.27;70.39;80235.34;5029711;28;20096;-72
2023/08/11 08:17:16;;;;;;;8.55;3.67;;;;;;;-146.27;69.67;80271.47;5020995;28;20071;-71
2023/08/11 08:19:41;;;;;;;6.43;3.63;;;;;;;-146.27;69.08;80219.28;5015635;28;20025;-72
2023/08/11 08:22:07;;;;;;;4.43;3.05;;;;;;;-146.27;69.16;80195.19;5011418;28;20434;-71
2023/08/11 08:24:33;;;;;;;11.02;4.28;;;;;;;-146.27;69.29;80199.22;5018394;28;20095;-71
2023/08/11 08:26:58;;;;;;;6.13;4.05;;;;;;;-146.27;69.66;80217.28;5018455;28;20474;-71
2023/08/11 08:29:24;;;;;;;10.27;3.42;;;;;;;-146.27;69.57;80235.34;5012102;28;20026;-71
2023/08/11 08:31:50;;;;;;;8.23;3.50;;;;;;;-146.27;69.68;80185.16;5014453;28;20419;-71
2023/08/11 08:34:15;;;;;;;9.68;3.50;;;;;;;-146.27;68.97;80147.00;5018715;28;20022;-71
2023/08/11 08:36:40;;;;;;;8.93;3.78;;;;;;;-146.27;68.50;80064.69;5020978;28;20038;-71
2023/08/11 08:39:07;;;;;;;6.88;3.28;;;;;;;-146.27;67.69;80032.56;5020910;28;20032;-72
2023/08/11 08:41:37;;;;;;;5.78;3.15;;;;;;;-146.27;67.85;80056.66;5019917;28;20072;-73
2023/08/11 08:44:03;;;;;;;9.25;3.53;;;;;;;-146.27;67.36;80022.53;5025803;28;20033;-70
2023/08/11 08:46:31;;;;;;;9.15;3.47;;;;;;;-146.27;67.69;79958.28;5023743;28;20040;-71
2023/08/11 08:49:06;;;;;;;5.07;3.47;;;;;;;-146.27;68.43;79938.22;5027066;28;20107;-72
2023/08/11 08:51:33;;;;;;;6.50;3.53;;;;;;;-146.27;68.42;79962.31;5020048;28;20443;-70
2023/08/11 08:54:00;;;;;;;8.25;3.45;;;;;;;-146.27;68.25;79900.06;5031117;28;20056;-70
2023/08/11 08:56:26;;;;;;;10.05;3.33;;;;;;;-146.27;67.79;79877.97;5027372;28;20112;-73
2023/08/11 08:58:51;;;;;;;7.10;3.60;;;;;;;-146.27;68.98;79793.66;5022956;28;20029;-71
2023/08/11 09:01:18;;;;;;;11.23;4.22;;;;;;;-146.27;66.29;79803.69;5030961;28;20021;-70
2023/08/11 09:03:45;;;;;;;6.68;3.33;;;;;;;-146.27;66.81;79733.44;5031772;28;20113;-71
2023/08/11 09:06:12;;;;;;;8.10;3.20;;;;;;;-146.27;65.59;79727.41;5027920;28;20034;-72
2023/08/11 09:08:38;;;;;;;9.40;3.67;;;;;;;-146.27;65.78;79669.22;5032940;28;20040;-71
2023/08/11 09:11:04;;;;;;;9.15;2.90;;;;;;;-146.27;66.73;79594.94;5028822;28;20478;-71
2023/08/11 09:13:31;;;;;;;10.75;3.67;;;;;;;-146.27;66.87;79586.91;5017116;28;20088;-71
2023/08/11 09:15:57;;;;;;;5.32;2.95;;;;;;;-146.27;66.25;79536.72;5015595;28;20034;-70
2023/08/11 09:18:22;;;;;;;10.63;3.17;;;;;;;-146.27;67.19;79548.75;5031154;28;20030;-71
2023/08/11 09:20:49;;;;;;;5.50;3.92;;;;;;;-146.27;65.42;79590.91;5023268;28;20033;-72
2023/08/11 09:23:17;;;;;;;6.88;4.07;;;;;;;-146.27;65.64;79623.03;5017356;28;20018;-71
2023/08/11 09:25:42;;;;;;;8.95;4.40;;;;;;;-146.27;65.82;79613.00;5022552;28;20029;-72
2023/08/11 09:28:08;;;;;;;6.18;3.70;;;;;;;-146.27;65.98;79544.75;5025380;28;20470;-72
2023/08/11 09:30:34;;;;;;;9.50;3.83;;;;;;;-146.27;65.19;79532.69;5026014;28;20033;-70
2023/08/11 09:33:01;;;;;;;4.57;3.22;;;;;;;-146.27;64.58;79522.66;5030361;28;20556;-68
2023/08/11 09:35:26;;;;;;;6.15;3.20;;;;;;;-146.27;65.06;79508.59;5029627;28;20037;-69
2023/08/11 09:37:53;;;;;;;10.70;3.30;;;;;;;-146.27;65.20;79402.22;5029674;28;20025;-67
2023/08/11 09:40:19;;;;;;;6.22;3.33;;;;;;;-146.27;64.58;79392.19;5026792;28;20060;-66
2023/08/11 09:42:44;;;;;;;6.80;3.72;;;;;;;-146.27;65.68;79350.03;5028211;28;20072;-67
2023/08/11 09:45:10;;;;;;;6.53;3.50;;;;;;;-146.27;65.74;79299.84;5023354;28;20037;-71
2023/08/11 09:47:35;;;;;;;6.88;3.85;;;;;;;-146.27;64.32;79219.56;5030640;28;20081;-71
2023/08/11 09:50:01;;;;;;;5.15;3.25;;;;;;;-146.27;64.49;79125.22;5031426;28;20424;-70
2023/08/11 09:52:28;;;;;;;5.10;3.03;;;;;;;-146.27;63.93;79115.19;5014804;28;20029;-70
2023/08/11 09:54:55;;;;;;;10.85;3.15;;;;;;;-146.27;63.29;79121.22;5029478;28;20021;-70
2023/08/11 09:57:22;;;;;;;7.05;2.67;;;;;;;-146.27;62.24;79067.00;5032247;28;20052;-69
2023/08/11 09:59:49;;;;;;;7.97;3.22;;;;;;;-146.27;63.22;79006.81;5032085;28;20072;-69
2023/08/11 10:02:20;;;;;;;7.47;3.10;;;;;;;-146.27;62.62;78958.63;5030992;28;20477;-70
2023/08/11 10:04:56;;;;;;;4.78;2.88;;;;;;;-146.27;61.37;78894.41;5013254;28;20045;-71
2023/08/11 10:07:29;;;;;;;5.63;2.60;;;;;;;-146.27;61.16;78858.28;5013968;28;20041;-70
2023/08/11 10:09:56;;;;;;;5.55;2.75;;;;;;;-146.27;60.19;78940.56;5025152;28;20108;-70
2023/08/11 10:12:23;;;;;;;7.18;2.88;;;;;;;-146.27;61.12;78898.41;5028234;28;20120;-73
2023/08/11 10:14:49;;;;;;;8.30;3.08;;;;;;;-146.27;60.81;78822.16;5027472;28;20021;-73
2023/08/11 10:17:14;;;;;;;6.15;3.10;;;;;;;-146.27;60.61;78790.03;5022228;28;20030;-71
2023/08/11 10:19:41;;;;;;;5.88;3.40;;;;;;;-146.27;60.02;78763.94;5014468;28;20017;-72
2023/08/11 10:22:06;;;;;;;6.50;3.50;;;;;;;-146.27;58.00;78800.06;5019335;28;20453;-73
2023/08/11 10:24:36;;;;;;;4.50;2.90;;;;;;;-146.27;59.53;78741.88;5027452;28;20026;-71
2023/08/11 10:27:01;;;;;;;7.72;3.13;;;;;;;-146.27;57.48;78838.22;5023863;28;20037;-71
2023/08/11 10:29:28;;;;;;;9.30;3.03;;;;;;;-146.27;59.03;78846.25;5015968;28;20026;-73
2023/08/11 10:31:56;;;;;;;4.45;2.72;;;;;;;-146.27;58.55;78717.78;5018660;28;20030;-72
2023/08/11 10:34:23;;;;;;;8.20;3.47;;;;;;;-146.27;57.73;78782.00;5029596;28;20031;-75
2023/08/11 10:36:49;;;;;;;5.68;3.00;;;;;;;-146.27;58.51;78645.53;5026832;28;20052;-75
2023/08/11 10:39:17;;;;;;;5.10;3.13;;;;;;;-146.27;58.20;78567.25;5025444;28;20124;-76
2023/08/11 10:41:47;;;;;;;13.20;4.05;;;;;;;-146.27;58.50;78611.41;5028091;28;20021;-74
2023/08/11 10:44:16;;;;;;;6.22;4.00;;;;;;;-146.27;57.39;78470.94;5026919;28;20061;-75
2023/08/11 10:46:43;;;;;;;14.75;3.03;;;;;;;-146.27;58.18;78372.59;5022027;28;20029;-75
2023/08/11 10:49:08;;;;;;;7.28;3.10;;;;;;;-146.27;58.58;78336.47;5019440;28;20030;-74
2023/08/11 10:51:36;;;;;;;8.88;3.05;;;;;;;-146.27;58.05;78155.88;5027300;28;20030;-74
2023/08/11 10:54:11;;;;;;;5.65;4.05;;;;;;;-146.27;55.74;78236.16;5023023;28;20056;-76
2023/08/11 10:56:39;;;;;;;6.63;4.20;;;;;;;-146.27;55.93;78400.69;5028974;28;20025;-75
2023/08/11 10:59:24;;;;;;;5.68;3.83;;;;;;;-146.27;57.87;78637.50;5026345;28;20025;-75
2023/08/11 11:01:51;;;;;;;4.93;3.25;;;;;;;-146.27;59.07;78679.66;5023604;28;20457;-77
2023/08/11 11:04:18;;;;;;;5.05;3.17;;;;;;;-146.27;60.79;78525.13;5022167;28;20030;-76
2023/08/11 11:06:45;;;;;;;6.25;3.17;;;;;;;-146.27;59.65;78452.88;5024200;28;20041;-74
2023/08/11 11:09:11;;;;;;;7.05;4.13;;;;;;;-146.27;57.27;78364.56;5025699;28;20034;-74